sensor_id;sensor_type;location;lat;lon;timestamp;P1;durP1;ratioP1;P2;durP2;ratioP2
7503;SDS011;3793;48.136;11.536;2024-01-15T00:24:40;8.17;;;4.73;;
7503;SDS011;3793;48.136;11.536;2024-01-15T00:30:49;8.57;;;5.10;;
7503;SDS011;3793;48.136;11.536;2024-01-15T00:36:51;12.93;;;6.23;;
7503;SDS011;3793;48.136;11.536;2024-01-15T04:15:30;10.37;;;6.10;;
7503;SDS011;3793;48.136;11.536;2024-01-15T04:17:56;12.40;;;6.27;;
7503;SDS011;3793;48.136;11.536;2024-01-15T04:20:23;11.27;;;7.10;;
7503;SDS011;3793;48.136;11.536;2024-01-15T04:22:49;9.50;;;5.90;;
7503;SDS011;3793;48.136;11.536;2024-01-15T04:25:16;12.83;;;5.60;;
7503;SDS011;3793;48.136;11.536;2024-01-15T04:27:42;9.33;;;5.37;;
7503;SDS011;3793;48.136;11.536;2024-01-15T04:30:09;8.87;;;5.47;;
7503;SDS011;3793;48.136;11.536;2024-01-15T04:32:37;8.90;;;5.83;;
7503;SDS011;3793;48.136;11.536;2024-01-15T04:35:04;9.60;;;5.20;;
7503;SDS011;3793;48.136;11.536;2024-01-15T04:37:31;10.17;;;5.87;;
7503;SDS011;3793;48.136;11.536;2024-01-15T04:39:57;8.83;;;5.80;;
7503;SDS011;3793;48.136;11.536;2024-01-15T04:42:24;10.07;;;5.40;;
7503;SDS011;3793;48.136;11.536;2024-01-15T04:44:51;10.27;;;5.97;;
7503;SDS011;3793;48.136;11.536;2024-01-15T04:47:17;10.60;;;5.90;;
7503;SDS011;3793;48.136;11.536;2024-01-15T04:49:45;7.17;;;4.90;;
7503;SDS011;3793;48.136;11.536;2024-01-15T04:52:14;8.57;;;5.87;;
7503;SDS011;3793;48.136;11.536;2024-01-15T04:54:40;9.03;;;5.47;;
7503;SDS011;3793;48.136;11.536;2024-01-15T04:57:07;9.83;;;5.47;;
7503;SDS011;3793;48.136;11.536;2024-01-15T04:59:34;9.40;;;5.63;;
7503;SDS011;3793;48.136;11.536;2024-01-15T05:02:00;11.17;;;5.33;;
7503;SDS011;3793;48.136;11.536;2024-01-15T05:04:27;10.47;;;5.80;;
7503;SDS011;3793;48.136;11.536;2024-01-15T05:06:55;8.67;;;5.63;;
7503;SDS011;3793;48.136;11.536;2024-01-15T05:09:22;9.87;;;5.27;;
7503;SDS011;3793;48.136;11.536;2024-01-15T05:11:48;7.77;;;5.40;;
7503;SDS011;3793;48.136;11.536;2024-01-15T05:14:15;6.13;;;4.43;;
7503;SDS011;3793;48.136;11.536;2024-01-15T05:16:46;8.40;;;5.07;;
7503;SDS011;3793;48.136;11.536;2024-01-15T05:19:12;6.87;;;4.27;;
7503;SDS011;3793;48.136;11.536;2024-01-15T05:21:39;7.10;;;4.87;;
7503;SDS011;3793;48.136;11.536;2024-01-15T05:24:07;6.70;;;4.53;;
7503;SDS011;3793;48.136;11.536;2024-01-15T05:26:34;7.53;;;4.70;;
7503;SDS011;3793;48.136;11.536;2024-01-15T05:29:00;9.13;;;5.13;;
7503;SDS011;3793;48.136;11.536;2024-01-15T05:31:27;7.07;;;4.93;;
7503;SDS011;3793;48.136;11.536;2024-01-15T05:33:54;8.33;;;5.43;;
7503;SDS011;3793;48.136;11.536;2024-01-15T05:36:20;6.57;;;4.80;;
7503;SDS011;3793;48.136;11.536;2024-01-15T05:38:47;6.40;;;4.67;;
7503;SDS011;3793;48.136;11.536;2024-01-15T05:41:16;9.13;;;5.23;;
7503;SDS011;3793;48.136;11.536;2024-01-15T05:43:43;6.70;;;4.50;;
7503;SDS011;3793;48.136;11.536;2024-01-15T05:46:09;6.83;;;4.50;;
7503;SDS011;3793;48.136;11.536;2024-01-15T05:48:36;8.50;;;5.33;;
7503;SDS011;3793;48.136;11.536;2024-01-15T05:51:02;8.07;;;4.70;;
7503;SDS011;3793;48.136;11.536;2024-01-15T05:53:29;11.30;;;5.77;;
7503;SDS011;3793;48.136;11.536;2024-01-15T05:55:56;9.37;;;4.83;;
7503;SDS011;3793;48.136;11.536;2024-01-15T05:58:24;8.30;;;4.73;;
7503;SDS011;3793;48.136;11.536;2024-01-15T06:00:51;10.20;;;4.90;;
7503;SDS011;3793;48.136;11.536;2024-01-15T06:03:17;9.63;;;5.13;;
7503;SDS011;3793;48.136;11.536;2024-01-15T06:05:44;9.27;;;4.80;;
7503;SDS011;3793;48.136;11.536;2024-01-15T06:08:11;7.03;;;4.63;;
7503;SDS011;3793;48.136;11.536;2024-01-15T06:10:37;9.07;;;5.07;;
7503;SDS011;3793;48.136;11.536;2024-01-15T06:13:04;7.87;;;4.53;;
7503;SDS011;3793;48.136;11.536;2024-01-15T06:15:33;9.83;;;5.57;;
7503;SDS011;3793;48.136;11.536;2024-01-15T06:18:00;11.37;;;5.33;;
7503;SDS011;3793;48.136;11.536;2024-01-15T06:20:26;8.03;;;5.07;;
7503;SDS011;3793;48.136;11.536;2024-01-15T06:22:53;6.60;;;4.30;;
7503;SDS011;3793;48.136;11.536;2024-01-15T06:25:20;10.57;;;5.20;;
7503;SDS011;3793;48.136;11.536;2024-01-15T06:27:46;7.70;;;4.60;;
7503;SDS011;3793;48.136;11.536;2024-01-15T06:30:13;8.80;;;4.70;;
7503;SDS011;3793;48.136;11.536;2024-01-15T06:32:41;8.67;;;4.97;;
7503;SDS011;3793;48.136;11.536;2024-01-15T06:35:08;8.40;;;4.73;;
7503;SDS011;3793;48.136;11.536;2024-01-15T06:37:36;6.80;;;4.50;;
7503;SDS011;3793;48.136;11.536;2024-01-15T06:40:03;6.50;;;4.43;;
7503;SDS011;3793;48.136;11.536;2024-01-15T06:42:31;8.57;;;4.90;;
7503;SDS011;3793;48.136;11.536;2024-01-15T06:44:57;9.23;;;4.97;;
7503;SDS011;3793;48.136;11.536;2024-01-15T06:47:24;7.83;;;4.37;;
7503;SDS011;3793;48.136;11.536;2024-01-15T06:49:52;9.63;;;4.80;;
7503;SDS011;3793;48.136;11.536;2024-01-15T06:52:18;8.77;;;5.23;;
7503;SDS011;3793;48.136;11.536;2024-01-15T06:54:45;8.47;;;5.47;;
7503;SDS011;3793;48.136;11.536;2024-01-15T06:57:13;9.80;;;5.20;;
7503;SDS011;3793;48.136;11.536;2024-01-15T06:59:39;7.63;;;4.60;;
7503;SDS011;3793;48.136;11.536;2024-01-15T07:02:06;8.60;;;5.03;;
7503;SDS011;3793;48.136;11.536;2024-01-15T07:04:32;9.57;;;5.13;;
7503;SDS011;3793;48.136;11.536;2024-01-15T07:07:00;8.20;;;5.20;;
7503;SDS011;3793;48.136;11.536;2024-01-15T07:09:27;9.30;;;4.73;;
7503;SDS011;3793;48.136;11.536;2024-01-15T07:11:54;8.43;;;5.23;;
7503;SDS011;3793;48.136;11.536;2024-01-15T07:14:22;8.87;;;4.97;;
7503;SDS011;3793;48.136;11.536;2024-01-15T07:16:48;8.20;;;4.90;;
7503;SDS011;3793;48.136;11.536;2024-01-15T07:19:15;9.07;;;4.83;;
7503;SDS011;3793;48.136;11.536;2024-01-15T07:21:42;7.67;;;5.00;;
7503;SDS011;3793;48.136;11.536;2024-01-15T07:24:10;8.63;;;5.53;;
7503;SDS011;3793;48.136;11.536;2024-01-15T07:26:36;8.87;;;5.00;;
7503;SDS011;3793;48.136;11.536;2024-01-15T07:29:03;7.73;;;5.50;;
7503;SDS011;3793;48.136;11.536;2024-01-15T07:31:30;9.43;;;5.10;;
7503;SDS011;3793;48.136;11.536;2024-01-15T07:33:57;9.47;;;5.77;;
7503;SDS011;3793;48.136;11.536;2024-01-15T07:36:25;8.67;;;5.00;;
7503;SDS011;3793;48.136;11.536;2024-01-15T07:38:51;9.27;;;4.70;;
7503;SDS011;3793;48.136;11.536;2024-01-15T07:41:19;12.70;;;7.67;;
7503;SDS011;3793;48.136;11.536;2024-01-15T07:43:46;8.57;;;6.17;;
7503;SDS011;3793;48.136;11.536;2024-01-15T07:46:12;9.67;;;5.50;;
7503;SDS011;3793;48.136;11.536;2024-01-15T07:48:39;7.33;;;4.77;;
7503;SDS011;3793;48.136;11.536;2024-01-15T07:51:06;8.90;;;5.27;;
7503;SDS011;3793;48.136;11.536;2024-01-15T07:53:32;8.57;;;4.77;;
7503;SDS011;3793;48.136;11.536;2024-01-15T07:55:59;9.33;;;6.03;;
7503;SDS011;3793;48.136;11.536;2024-01-15T07:58:27;10.13;;;5.37;;
7503;SDS011;3793;48.136;11.536;2024-01-15T08:00:54;8.07;;;4.90;;
7503;SDS011;3793;48.136;11.536;2024-01-15T08:03:20;10.23;;;6.13;;
7503;SDS011;3793;48.136;11.536;2024-01-15T08:05:47;9.97;;;6.20;;
7503;SDS011;3793;48.136;11.536;2024-01-15T08:08:17;9.23;;;5.43;;
7503;SDS011;3793;48.136;11.536;2024-01-15T08:10:46;8.70;;;5.27;;
7503;SDS011;3793;48.136;11.536;2024-01-15T08:13:13;11.63;;;6.23;;
7503;SDS011;3793;48.136;11.536;2024-01-15T08:15:41;10.83;;;5.37;;
7503;SDS011;3793;48.136;11.536;2024-01-15T08:18:07;9.03;;;5.63;;
7503;SDS011;3793;48.136;11.536;2024-01-15T08:20:34;9.63;;;5.93;;
7503;SDS011;3793;48.136;11.536;2024-01-15T08:23:01;8.57;;;5.63;;
7503;SDS011;3793;48.136;11.536;2024-01-15T08:25:28;8.83;;;5.00;;
7503;SDS011;3793;48.136;11.536;2024-01-15T08:27:55;9.17;;;4.97;;
7503;SDS011;3793;48.136;11.536;2024-01-15T08:30:22;7.07;;;4.83;;
7503;SDS011;3793;48.136;11.536;2024-01-15T08:32:54;10.23;;;5.13;;
7503;SDS011;3793;48.136;11.536;2024-01-15T08:35:20;7.67;;;5.00;;
7503;SDS011;3793;48.136;11.536;2024-01-15T08:37:48;7.40;;;4.53;;
7503;SDS011;3793;48.136;11.536;2024-01-15T08:40:14;9.63;;;4.90;;
7503;SDS011;3793;48.136;11.536;2024-01-15T08:42:41;10.87;;;5.60;;
7503;SDS011;3793;48.136;11.536;2024-01-15T08:45:08;7.43;;;5.67;;
7503;SDS011;3793;48.136;11.536;2024-01-15T08:47:35;7.00;;;4.70;;
7503;SDS011;3793;48.136;11.536;2024-01-15T08:50:03;9.03;;;5.57;;
7503;SDS011;3793;48.136;11.536;2024-01-15T08:52:30;7.50;;;4.93;;
7503;SDS011;3793;48.136;11.536;2024-01-15T08:54:57;8.80;;;5.33;;
7503;SDS011;3793;48.136;11.536;2024-01-15T08:57:23;9.00;;;5.80;;
7503;SDS011;3793;48.136;11.536;2024-01-15T08:59:50;7.30;;;4.87;;
7503;SDS011;3793;48.136;11.536;2024-01-15T09:02:17;7.23;;;4.67;;
7503;SDS011;3793;48.136;11.536;2024-01-15T09:04:44;9.90;;;4.73;;
7503;SDS011;3793;48.136;11.536;2024-01-15T09:07:12;9.87;;;5.43;;
7503;SDS011;3793;48.136;11.536;2024-01-15T09:09:38;10.17;;;5.67;;
7503;SDS011;3793;48.136;11.536;2024-01-15T09:12:07;7.37;;;4.97;;
7503;SDS011;3793;48.136;11.536;2024-01-15T09:14:34;10.33;;;4.90;;
7503;SDS011;3793;48.136;11.536;2024-01-15T09:17:01;7.17;;;4.77;;
7503;SDS011;3793;48.136;11.536;2024-01-15T09:19:28;9.20;;;5.33;;
7503;SDS011;3793;48.136;11.536;2024-01-15T09:21:55;8.03;;;5.03;;
7503;SDS011;3793;48.136;11.536;2024-01-15T09:24:23;7.87;;;4.83;;
7503;SDS011;3793;48.136;11.536;2024-01-15T09:26:50;9.30;;;5.27;;
7503;SDS011;3793;48.136;11.536;2024-01-15T09:29:16;9.70;;;5.43;;
7503;SDS011;3793;48.136;11.536;2024-01-15T09:31:43;8.70;;;5.13;;
7503;SDS011;3793;48.136;11.536;2024-01-15T09:34:10;7.60;;;5.07;;
7503;SDS011;3793;48.136;11.536;2024-01-15T09:36:38;9.53;;;4.93;;
7503;SDS011;3793;48.136;11.536;2024-01-15T09:39:06;8.97;;;4.97;;
7503;SDS011;3793;48.136;11.536;2024-01-15T09:41:35;7.30;;;4.67;;
7503;SDS011;3793;48.136;11.536;2024-01-15T09:44:02;8.47;;;5.20;;
7503;SDS011;3793;48.136;11.536;2024-01-15T09:46:29;8.13;;;4.70;;
7503;SDS011;3793;48.136;11.536;2024-01-15T09:48:56;5.60;;;3.90;;
7503;SDS011;3793;48.136;11.536;2024-01-15T09:51:22;7.33;;;4.30;;
7503;SDS011;3793;48.136;11.536;2024-01-15T09:53:50;6.43;;;3.87;;
7503;SDS011;3793;48.136;11.536;2024-01-15T09:56:18;7.77;;;4.67;;
7503;SDS011;3793;48.136;11.536;2024-01-15T09:58:46;6.33;;;4.33;;
7503;SDS011;3793;48.136;11.536;2024-01-15T10:01:12;6.47;;;4.10;;
7503;SDS011;3793;48.136;11.536;2024-01-15T10:03:40;6.93;;;4.77;;
7503;SDS011;3793;48.136;11.536;2024-01-15T10:06:07;6.63;;;3.73;;
7503;SDS011;3793;48.136;11.536;2024-01-15T10:08:35;5.63;;;3.70;;
7503;SDS011;3793;48.136;11.536;2024-01-15T10:11:04;7.03;;;4.53;;
7503;SDS011;3793;48.136;11.536;2024-01-15T10:13:31;6.67;;;4.13;;
7503;SDS011;3793;48.136;11.536;2024-01-15T10:16:00;5.63;;;3.93;;
7503;SDS011;3793;48.136;11.536;2024-01-15T10:18:28;6.43;;;4.00;;
7503;SDS011;3793;48.136;11.536;2024-01-15T10:24:18;7.83;;;3.90;;
7503;SDS011;3793;48.136;11.536;2024-01-15T10:26:52;4.57;;;3.63;;
7503;SDS011;3793;48.136;11.536;2024-01-15T10:29:56;8.30;;;4.17;;
7503;SDS011;3793;48.136;11.536;2024-01-15T10:32:51;5.00;;;3.50;;
7503;SDS011;3793;48.136;11.536;2024-01-15T10:35:46;6.47;;;3.87;;
7503;SDS011;3793;48.136;11.536;2024-01-15T10:38:18;7.03;;;4.20;;
7503;SDS011;3793;48.136;11.536;2024-01-15T10:40:50;5.70;;;3.53;;
7503;SDS011;3793;48.136;11.536;2024-01-15T10:51:17;6.23;;;3.57;;
7503;SDS011;3793;48.136;11.536;2024-01-15T10:53:45;5.97;;;3.53;;
7503;SDS011;3793;48.136;11.536;2024-01-15T10:56:12;6.00;;;3.90;;
7503;SDS011;3793;48.136;11.536;2024-01-15T10:58:47;4.90;;;3.40;;
7503;SDS011;3793;48.136;11.536;2024-01-15T11:01:19;6.80;;;3.60;;
7503;SDS011;3793;48.136;11.536;2024-01-15T11:03:49;7.47;;;3.60;;
7503;SDS011;3793;48.136;11.536;2024-01-15T11:06:23;4.33;;;3.43;;
7503;SDS011;3793;48.136;11.536;2024-01-15T11:09:03;6.30;;;3.90;;
7503;SDS011;3793;48.136;11.536;2024-01-15T11:11:30;6.17;;;3.60;;
7503;SDS011;3793;48.136;11.536;2024-01-15T11:14:04;6.87;;;3.60;;
7503;SDS011;3793;48.136;11.536;2024-01-15T11:19:17;4.70;;;3.20;;
7503;SDS011;3793;48.136;11.536;2024-01-15T11:21:45;6.30;;;4.00;;
7503;SDS011;3793;48.136;11.536;2024-01-15T11:24:12;5.20;;;3.50;;
7503;SDS011;3793;48.136;11.536;2024-01-15T11:27:00;5.53;;;3.23;;
7503;SDS011;3793;48.136;11.536;2024-01-15T11:29:30;5.77;;;3.40;;
7503;SDS011;3793;48.136;11.536;2024-01-15T11:32:03;5.97;;;3.20;;
7503;SDS011;3793;48.136;11.536;2024-01-15T11:37:14;4.97;;;3.47;;
7503;SDS011;3793;48.136;11.536;2024-01-15T11:40:02;6.43;;;3.50;;
7503;SDS011;3793;48.136;11.536;2024-01-15T11:42:30;5.67;;;3.43;;
7503;SDS011;3793;48.136;11.536;2024-01-15T11:44:58;5.60;;;3.27;;
7503;SDS011;3793;48.136;11.536;2024-01-15T11:50:11;5.23;;;3.37;;
7503;SDS011;3793;48.136;11.536;2024-01-15T11:52:40;4.73;;;2.90;;
7503;SDS011;3793;48.136;11.536;2024-01-15T11:58:47;7.53;;;3.80;;
7503;SDS011;3793;48.136;11.536;2024-01-15T12:01:06;6.80;;;3.33;;
7503;SDS011;3793;48.136;11.536;2024-01-15T12:03:47;5.13;;;2.90;;
7503;SDS011;3793;48.136;11.536;2024-01-15T12:06:39;4.97;;;3.40;;
7503;SDS011;3793;48.136;11.536;2024-01-15T12:12:19;4.63;;;3.23;;
7503;SDS011;3793;48.136;11.536;2024-01-15T12:15:00;5.00;;;3.20;;
7503;SDS011;3793;48.136;11.536;2024-01-15T12:17:40;5.70;;;3.17;;
7503;SDS011;3793;48.136;11.536;2024-01-15T12:23:53;4.33;;;2.70;;
7503;SDS011;3793;48.136;11.536;2024-01-15T12:41:36;6.47;;;2.70;;
7503;SDS011;3793;48.136;11.536;2024-01-15T12:50:02;4.43;;;2.30;;
7503;SDS011;3793;48.136;11.536;2024-01-15T12:52:48;3.93;;;2.53;;
7503;SDS011;3793;48.136;11.536;2024-01-15T12:55:37;3.63;;;2.10;;
7503;SDS011;3793;48.136;11.536;2024-01-15T13:01:32;4.80;;;3.17;;
7503;SDS011;3793;48.136;11.536;2024-01-15T13:04:20;5.17;;;2.90;;
7503;SDS011;3793;48.136;11.536;2024-01-15T13:07:13;5.47;;;2.90;;
7503;SDS011;3793;48.136;11.536;2024-01-15T13:09:47;2.90;;;2.40;;
7503;SDS011;3793;48.136;11.536;2024-01-15T13:12:44;3.80;;;2.60;;
7503;SDS011;3793;48.136;11.536;2024-01-15T13:15:25;4.93;;;2.60;;
7503;SDS011;3793;48.136;11.536;2024-01-15T13:24:01;5.23;;;2.77;;
7503;SDS011;3793;48.136;11.536;2024-01-15T13:26:28;3.47;;;2.57;;
7503;SDS011;3793;48.136;11.536;2024-01-15T13:28:55;3.73;;;2.80;;
7503;SDS011;3793;48.136;11.536;2024-01-15T13:31:21;3.53;;;2.70;;
7503;SDS011;3793;48.136;11.536;2024-01-15T13:33:48;4.50;;;3.10;;
7503;SDS011;3793;48.136;11.536;2024-01-15T13:36:15;4.47;;;3.07;;
7503;SDS011;3793;48.136;11.536;2024-01-15T13:38:42;4.90;;;2.93;;
7503;SDS011;3793;48.136;11.536;2024-01-15T13:41:11;3.83;;;2.77;;
7503;SDS011;3793;48.136;11.536;2024-01-15T13:43:38;4.50;;;3.40;;
7503;SDS011;3793;48.136;11.536;2024-01-15T13:46:05;5.73;;;3.47;;
7503;SDS011;3793;48.136;11.536;2024-01-15T13:48:32;5.03;;;3.10;;
7503;SDS011;3793;48.136;11.536;2024-01-15T13:50:59;5.70;;;3.40;;
7503;SDS011;3793;48.136;11.536;2024-01-15T13:53:26;4.77;;;3.27;;
7503;SDS011;3793;48.136;11.536;2024-01-15T13:55:53;5.27;;;3.43;;
7503;SDS011;3793;48.136;11.536;2024-01-15T13:58:21;7.83;;;3.93;;
7503;SDS011;3793;48.136;11.536;2024-01-15T14:00:48;8.13;;;3.47;;
7503;SDS011;3793;48.136;11.536;2024-01-15T14:03:15;5.47;;;3.13;;
7503;SDS011;3793;48.136;11.536;2024-01-15T14:05:41;8.70;;;3.40;;
7503;SDS011;3793;48.136;11.536;2024-01-15T14:08:10;5.53;;;3.57;;
7503;SDS011;3793;48.136;11.536;2024-01-15T14:10:37;5.77;;;3.30;;
7503;SDS011;3793;48.136;11.536;2024-01-15T14:13:04;5.40;;;3.53;;
7503;SDS011;3793;48.136;11.536;2024-01-15T14:15:34;6.10;;;3.50;;
7503;SDS011;3793;48.136;11.536;2024-01-15T14:18:02;6.17;;;3.47;;
7503;SDS011;3793;48.136;11.536;2024-01-15T14:20:59;3.43;;;2.90;;
7503;SDS011;3793;48.136;11.536;2024-01-15T14:26:16;5.67;;;3.60;;
7503;SDS011;3793;48.136;11.536;2024-01-15T14:28:45;5.67;;;3.80;;
7503;SDS011;3793;48.136;11.536;2024-01-15T14:31:29;7.00;;;3.63;;
7503;SDS011;3793;48.136;11.536;2024-01-15T14:34:07;4.60;;;3.20;;
7503;SDS011;3793;48.136;11.536;2024-01-15T14:36:35;6.50;;;3.30;;
7503;SDS011;3793;48.136;11.536;2024-01-15T14:39:01;3.97;;;2.97;;
7503;SDS011;3793;48.136;11.536;2024-01-15T14:41:29;4.23;;;2.80;;
7503;SDS011;3793;48.136;11.536;2024-01-15T14:43:59;4.57;;;3.00;;
7503;SDS011;3793;48.136;11.536;2024-01-15T14:46:33;4.50;;;3.00;;
7503;SDS011;3793;48.136;11.536;2024-01-15T14:49:00;4.13;;;2.93;;
7503;SDS011;3793;48.136;11.536;2024-01-15T14:51:27;4.80;;;2.77;;
7503;SDS011;3793;48.136;11.536;2024-01-15T14:53:54;4.57;;;2.80;;
7503;SDS011;3793;48.136;11.536;2024-01-15T14:56:21;5.30;;;2.73;;
7503;SDS011;3793;48.136;11.536;2024-01-15T14:58:53;4.37;;;3.07;;
7503;SDS011;3793;48.136;11.536;2024-01-15T15:01:23;4.33;;;2.80;;
7503;SDS011;3793;48.136;11.536;2024-01-15T15:03:51;4.53;;;3.23;;
7503;SDS011;3793;48.136;11.536;2024-01-15T15:06:19;4.20;;;3.13;;
7503;SDS011;3793;48.136;11.536;2024-01-15T15:08:46;4.40;;;2.87;;
7503;SDS011;3793;48.136;11.536;2024-01-15T15:11:13;4.47;;;3.00;;
7503;SDS011;3793;48.136;11.536;2024-01-15T15:13:40;6.57;;;3.27;;
7503;SDS011;3793;48.136;11.536;2024-01-15T15:16:07;5.17;;;3.10;;
7503;SDS011;3793;48.136;11.536;2024-01-15T15:18:34;4.17;;;2.93;;
7503;SDS011;3793;48.136;11.536;2024-01-15T15:21:03;5.67;;;2.90;;
7503;SDS011;3793;48.136;11.536;2024-01-15T15:23:30;4.87;;;3.70;;
7503;SDS011;3793;48.136;11.536;2024-01-15T15:25:59;6.63;;;3.57;;
7503;SDS011;3793;48.136;11.536;2024-01-15T15:28:34;4.80;;;3.27;;
7503;SDS011;3793;48.136;11.536;2024-01-15T15:31:02;3.77;;;2.93;;
7503;SDS011;3793;48.136;11.536;2024-01-15T15:33:29;5.53;;;3.67;;
7503;SDS011;3793;48.136;11.536;2024-01-15T15:35:56;4.67;;;3.53;;
7503;SDS011;3793;48.136;11.536;2024-01-15T15:38:26;4.33;;;3.10;;
7503;SDS011;3793;48.136;11.536;2024-01-15T15:40:53;5.70;;;3.30;;
7503;SDS011;3793;48.136;11.536;2024-01-15T15:43:20;4.77;;;3.27;;
7503;SDS011;3793;48.136;11.536;2024-01-15T15:45:48;4.83;;;3.90;;
7503;SDS011;3793;48.136;11.536;2024-01-15T15:48:15;4.87;;;3.50;;
7503;SDS011;3793;48.136;11.536;2024-01-15T15:50:42;4.87;;;3.67;;
7503;SDS011;3793;48.136;11.536;2024-01-15T15:53:08;6.53;;;3.40;;
7503;SDS011;3793;48.136;11.536;2024-01-15T15:55:41;6.07;;;4.07;;
7503;SDS011;3793;48.136;11.536;2024-01-15T15:58:09;5.60;;;3.77;;
7503;SDS011;3793;48.136;11.536;2024-01-15T16:00:36;5.07;;;3.57;;
7503;SDS011;3793;48.136;11.536;2024-01-15T16:03:03;5.73;;;3.70;;
7503;SDS011;3793;48.136;11.536;2024-01-15T16:05:30;7.60;;;4.60;;
7503;SDS011;3793;48.136;11.536;2024-01-15T16:08:00;5.23;;;3.83;;
7503;SDS011;3793;48.136;11.536;2024-01-15T16:10:28;6.67;;;4.00;;
7503;SDS011;3793;48.136;11.536;2024-01-15T16:12:58;5.63;;;4.20;;
7503;SDS011;3793;48.136;11.536;2024-01-15T16:15:25;6.27;;;4.50;;
7503;SDS011;3793;48.136;11.536;2024-01-15T16:17:56;8.13;;;4.33;;
7503;SDS011;3793;48.136;11.536;2024-01-15T16:20:25;9.17;;;5.10;;
7503;SDS011;3793;48.136;11.536;2024-01-15T16:22:52;6.90;;;4.83;;
7503;SDS011;3793;48.136;11.536;2024-01-15T16:25:19;6.60;;;4.63;;
7503;SDS011;3793;48.136;11.536;2024-01-15T16:27:46;5.23;;;3.93;;
7503;SDS011;3793;48.136;11.536;2024-01-15T16:30:15;7.20;;;4.70;;
7503;SDS011;3793;48.136;11.536;2024-01-15T16:32:42;6.03;;;4.20;;
7503;SDS011;3793;48.136;11.536;2024-01-15T16:35:08;7.23;;;4.93;;
7503;SDS011;3793;48.136;11.536;2024-01-15T16:37:35;7.27;;;4.33;;
7503;SDS011;3793;48.136;11.536;2024-01-15T16:40:02;8.30;;;5.23;;
7503;SDS011;3793;48.136;11.536;2024-01-15T16:42:29;8.83;;;5.50;;
7503;SDS011;3793;48.136;11.536;2024-01-15T16:44:56;10.47;;;4.77;;
7503;SDS011;3793;48.136;11.536;2024-01-15T16:47:24;6.93;;;4.77;;
7503;SDS011;3793;48.136;11.536;2024-01-15T16:49:50;8.20;;;5.20;;
7503;SDS011;3793;48.136;11.536;2024-01-15T16:52:19;8.67;;;5.97;;
7503;SDS011;3793;48.136;11.536;2024-01-15T16:54:45;8.13;;;4.97;;
7503;SDS011;3793;48.136;11.536;2024-01-15T16:57:12;9.20;;;5.53;;
7503;SDS011;3793;48.136;11.536;2024-01-15T16:59:39;8.83;;;5.30;;
7503;SDS011;3793;48.136;11.536;2024-01-15T17:02:05;7.53;;;5.20;;
7503;SDS011;3793;48.136;11.536;2024-01-15T17:04:34;6.37;;;4.47;;
7503;SDS011;3793;48.136;11.536;2024-01-15T17:07:01;10.13;;;5.20;;
7503;SDS011;3793;48.136;11.536;2024-01-15T17:09:27;9.63;;;5.23;;
7503;SDS011;3793;48.136;11.536;2024-01-15T17:11:54;8.57;;;5.23;;
7503;SDS011;3793;48.136;11.536;2024-01-15T17:14:24;10.53;;;6.23;;
7503;SDS011;3793;48.136;11.536;2024-01-15T17:16:51;7.63;;;5.47;;
7503;SDS011;3793;48.136;11.536;2024-01-15T17:19:20;11.33;;;5.27;;
7503;SDS011;3793;48.136;11.536;2024-01-15T17:21:51;8.47;;;5.37;;
7503;SDS011;3793;48.136;11.536;2024-01-15T17:24:18;11.23;;;6.27;;
7503;SDS011;3793;48.136;11.536;2024-01-15T17:26:46;11.20;;;5.80;;
7503;SDS011;3793;48.136;11.536;2024-01-15T17:29:14;8.83;;;5.63;;
7503;SDS011;3793;48.136;11.536;2024-01-15T17:31:41;9.90;;;6.40;;
7503;SDS011;3793;48.136;11.536;2024-01-15T17:34:07;8.17;;;5.53;;
7503;SDS011;3793;48.136;11.536;2024-01-15T17:36:37;8.63;;;5.17;;
7503;SDS011;3793;48.136;11.536;2024-01-15T17:39:13;10.20;;;5.93;;
7503;SDS011;3793;48.136;11.536;2024-01-15T17:41:46;8.07;;;5.37;;
7503;SDS011;3793;48.136;11.536;2024-01-15T17:44:13;5.10;;;3.60;;
7503;SDS011;3793;48.136;11.536;2024-01-15T17:46:42;4.83;;;4.40;;
7503;SDS011;3793;48.136;11.536;2024-01-15T17:49:09;2.60;;;2.10;;
7503;SDS011;3793;48.136;11.536;2024-01-15T17:51:36;3.20;;;2.10;;
7503;SDS011;3793;48.136;11.536;2024-01-15T17:54:02;3.80;;;2.20;;
7503;SDS011;3793;48.136;11.536;2024-01-15T17:56:35;3.97;;;2.33;;
7503;SDS011;3793;48.136;11.536;2024-01-15T17:59:05;4.43;;;2.50;;
7503;SDS011;3793;48.136;11.536;2024-01-15T18:01:36;2.87;;;2.50;;
7503;SDS011;3793;48.136;11.536;2024-01-15T18:04:07;4.57;;;3.00;;
7503;SDS011;3793;48.136;11.536;2024-01-15T18:06:33;4.53;;;3.57;;
7503;SDS011;3793;48.136;11.536;2024-01-15T18:09:00;3.83;;;3.30;;
7503;SDS011;3793;48.136;11.536;2024-01-15T18:11:31;4.40;;;3.67;;
7503;SDS011;3793;48.136;11.536;2024-01-15T18:14:02;7.10;;;4.30;;
7503;SDS011;3793;48.136;11.536;2024-01-15T18:16:30;6.93;;;4.37;;
7503;SDS011;3793;48.136;11.536;2024-01-15T18:18:57;7.37;;;4.17;;
7503;SDS011;3793;48.136;11.536;2024-01-15T18:21:25;7.10;;;4.50;;
7503;SDS011;3793;48.136;11.536;2024-01-15T18:23:52;6.60;;;4.57;;
7503;SDS011;3793;48.136;11.536;2024-01-15T18:26:19;7.17;;;4.73;;
7503;SDS011;3793;48.136;11.536;2024-01-15T18:28:46;7.13;;;4.87;;
7503;SDS011;3793;48.136;11.536;2024-01-15T18:31:14;8.07;;;5.30;;
7503;SDS011;3793;48.136;11.536;2024-01-15T18:33:41;7.03;;;5.10;;
7503;SDS011;3793;48.136;11.536;2024-01-15T18:36:10;10.37;;;5.20;;
7503;SDS011;3793;48.136;11.536;2024-01-15T18:38:37;6.53;;;4.87;;
7503;SDS011;3793;48.136;11.536;2024-01-15T18:41:04;5.80;;;4.37;;
7503;SDS011;3793;48.136;11.536;2024-01-15T18:43:31;6.93;;;4.50;;
7503;SDS011;3793;48.136;11.536;2024-01-15T18:45:58;7.00;;;5.13;;
7503;SDS011;3793;48.136;11.536;2024-01-15T18:48:31;10.77;;;5.00;;
7503;SDS011;3793;48.136;11.536;2024-01-15T18:50:58;5.97;;;4.63;;
7503;SDS011;3793;48.136;11.536;2024-01-15T18:53:25;6.37;;;4.43;;
7503;SDS011;3793;48.136;11.536;2024-01-15T18:55:51;5.17;;;4.30;;
7503;SDS011;3793;48.136;11.536;2024-01-15T18:58:21;6.53;;;4.60;;
7503;SDS011;3793;48.136;11.536;2024-01-15T19:00:47;5.73;;;4.33;;
7503;SDS011;3793;48.136;11.536;2024-01-15T19:03:14;7.33;;;4.43;;
7503;SDS011;3793;48.136;11.536;2024-01-15T19:05:42;8.03;;;4.30;;
7503;SDS011;3793;48.136;11.536;2024-01-15T19:08:10;5.17;;;3.77;;
7503;SDS011;3793;48.136;11.536;2024-01-15T19:10:36;6.30;;;3.70;;
7503;SDS011;3793;48.136;11.536;2024-01-15T19:13:05;4.40;;;3.30;;
7503;SDS011;3793;48.136;11.536;2024-01-15T19:15:35;3.87;;;3.13;;
7503;SDS011;3793;48.136;11.536;2024-01-15T19:18:02;4.83;;;3.67;;
7503;SDS011;3793;48.136;11.536;2024-01-15T19:20:30;5.53;;;3.23;;
7503;SDS011;3793;48.136;11.536;2024-01-15T19:22:59;4.83;;;3.47;;
7503;SDS011;3793;48.136;11.536;2024-01-15T19:25:26;5.47;;;3.70;;
7503;SDS011;3793;48.136;11.536;2024-01-15T19:27:54;6.50;;;4.23;;
7503;SDS011;3793;48.136;11.536;2024-01-15T19:30:21;5.80;;;4.30;;
7503;SDS011;3793;48.136;11.536;2024-01-15T19:32:48;6.77;;;3.60;;
7503;SDS011;3793;48.136;11.536;2024-01-15T19:35:15;5.90;;;3.50;;
7503;SDS011;3793;48.136;11.536;2024-01-15T19:37:42;5.13;;;3.40;;
7503;SDS011;3793;48.136;11.536;2024-01-15T19:40:15;5.10;;;3.50;;
7503;SDS011;3793;48.136;11.536;2024-01-15T19:42:54;4.53;;;3.40;;
7503;SDS011;3793;48.136;11.536;2024-01-15T19:45:21;6.00;;;4.53;;
7503;SDS011;3793;48.136;11.536;2024-01-15T19:47:49;4.60;;;3.27;;
7503;SDS011;3793;48.136;11.536;2024-01-15T19:50:33;5.40;;;3.33;;
7503;SDS011;3793;48.136;11.536;2024-01-15T19:53:00;6.30;;;3.83;;
7503;SDS011;3793;48.136;11.536;2024-01-15T19:56:00;5.03;;;3.40;;
7503;SDS011;3793;48.136;11.536;2024-01-15T19:58:32;5.30;;;2.80;;
7503;SDS011;3793;48.136;11.536;2024-01-15T20:01:04;5.23;;;3.10;;
7503;SDS011;3793;48.136;11.536;2024-01-15T20:03:37;7.00;;;3.80;;
7503;SDS011;3793;48.136;11.536;2024-01-15T20:12:42;4.50;;;3.20;;
7503;SDS011;3793;48.136;11.536;2024-01-15T20:15:11;4.43;;;3.10;;
7503;SDS011;3793;48.136;11.536;2024-01-15T20:17:39;4.77;;;3.37;;
7503;SDS011;3793;48.136;11.536;2024-01-15T20:20:07;5.93;;;3.30;;
7503;SDS011;3793;48.136;11.536;2024-01-15T20:22:37;5.73;;;3.60;;
7503;SDS011;3793;48.136;11.536;2024-01-15T20:25:13;7.10;;;4.03;;
7503;SDS011;3793;48.136;11.536;2024-01-15T20:27:50;4.27;;;3.23;;